sensor_id;sensor_type;location;lat;lon;timestamp;pressure;altitude;pressure_sealevel;temperature;humidity
73824;BME280;62154;54.914;73.444;2024-03-23T00:52:27;100197.06;;;-7.59;100.00
73824;BME280;62154;54.914;73.444;2024-03-23T00:54:55;100194.81;;;-7.65;100.00
73824;BME280;62154;54.914;73.444;2024-03-23T00:57:22;100150.25;;;-7.95;100.00
73824;BME280;62154;54.914;73.444;2024-03-23T00:59:50;100194.16;;;-7.69;100.00
73824;BME280;62154;54.914;73.444;2024-03-23T01:02:17;100127.84;;;-8.09;100.00
73824;BME280;62154;54.914;73.444;2024-03-23T01:04:45;100191.38;;;-7.67;100.00
73824;BME280;62154;54.914;73.444;2024-03-23T01:07:13;100190.63;;;-7.70;100.00
73824;BME280;62154;54.914;73.444;2024-03-23T01:09:40;100194.50;;;-7.74;100.00
73824;BME280;62154;54.914;73.444;2024-03-23T01:12:08;100192.78;;;-7.75;100.00
73824;BME280;62154;54.914;73.444;2024-03-23T01:14:35;100204.06;;;-7.70;100.00
73824;BME280;62154;54.914;73.444;2024-03-23T01:17:07;100167.13;;;-7.93;100.00
73824;BME280;62154;54.914;73.444;2024-03-23T01:19:34;100179.97;;;-7.84;100.00
73824;BME280;62154;54.914;73.444;2024-03-23T01:22:01;100141.19;;;-8.07;100.00
73824;BME280;62154;54.914;73.444;2024-03-23T01:24:29;100187.03;;;-7.83;100.00
73824;BME280;62154;54.914;73.444;2024-03-23T01:26:56;100189.44;;;-7.78;100.00
73824;BME280;62154;54.914;73.444;2024-03-23T01:29:24;100193.19;;;-7.81;100.00
73824;BME280;62154;54.914;73.444;2024-03-23T01:31:52;100164.78;;;-7.85;100.00
73824;BME280;62154;54.914;73.444;2024-03-23T01:34:19;100126.47;;;-8.01;100.00
73824;BME280;62154;54.914;73.444;2024-03-23T01:36:47;100172.97;;;-7.74;100.00
73824;BME280;62154;54.914;73.444;2024-03-23T01:39:15;100163.81;;;-7.71;100.00
73824;BME280;62154;54.914;73.444;2024-03-23T01:41:43;100166.38;;;-7.70;100.00
73824;BME280;62154;54.914;73.444;2024-03-23T01:44:11;100169.63;;;-7.64;100.00
73824;BME280;62154;54.914;73.444;2024-03-23T01:46:41;100204.84;;;-7.55;100.00
73824;BME280;62154;54.914;73.444;2024-03-23T01:49:09;100206.53;;;-7.66;100.00
73824;BME280;62154;54.914;73.444;2024-03-23T01:51:37;100194.16;;;-7.82;100.00
73824;BME280;62154;54.914;73.444;2024-03-23T01:54:06;100190.63;;;-7.82;100.00
73824;BME280;62154;54.914;73.444;2024-03-23T01:56:34;100192.13;;;-7.78;100.00
73824;BME280;62154;54.914;73.444;2024-03-23T01:59:07;100184.69;;;-7.75;100.00
73824;BME280;62154;54.914;73.444;2024-03-23T02:01:35;100189.31;;;-7.64;100.00
73824;BME280;62154;54.914;73.444;2024-03-23T02:04:03;100193.41;;;-7.58;100.00
73824;BME280;62154;54.914;73.444;2024-03-23T02:06:31;100137.75;;;-7.83;100.00
73824;BME280;62154;54.914;73.444;2024-03-23T02:08:58;100181.97;;;-7.49;100.00
73824;BME280;62154;54.914;73.444;2024-03-23T02:11:29;100186.81;;;-7.41;100.00
73824;BME280;62154;54.914;73.444;2024-03-23T02:13:57;100177.66;;;-7.39;100.00
73824;BME280;62154;54.914;73.444;2024-03-23T02:16:25;100168.50;;;-7.36;100.00
73824;BME280;62154;54.914;73.444;2024-03-23T02:18:52;100139.88;;;-7.50;100.00
73824;BME280;62154;54.914;73.444;2024-03-23T02:21:20;100185.06;;;-7.16;100.00
73824;BME280;62154;54.914;73.444;2024-03-23T02:23:47;100161.28;;;-7.35;100.00
73824;BME280;62154;54.914;73.444;2024-03-23T02:26:15;100205.94;;;-7.07;100.00
73824;BME280;62154;54.914;73.444;2024-03-23T02:28:43;100204.91;;;-7.17;100.00
73824;BME280;62154;54.914;73.444;2024-03-23T02:31:14;100191.34;;;-7.29;100.00
73824;BME280;62154;54.914;73.444;2024-03-23T02:33:42;100204.47;;;-7.24;100.00
73824;BME280;62154;54.914;73.444;2024-03-23T02:36:21;100152.25;;;-7.60;100.00
73824;BME280;62154;54.914;73.444;2024-03-23T02:38:49;100195.78;;;-7.41;100.00
73824;BME280;62154;54.914;73.444;2024-03-23T02:41:20;100203.31;;;-7.33;100.00
73824;BME280;62154;54.914;73.444;2024-03-23T02:43:50;100205.56;;;-7.27;100.00
73824;BME280;62154;54.914;73.444;2024-03-23T02:46:18;100199.72;;;-7.33;100.00
73824;BME280;62154;54.914;73.444;2024-03-23T02:48:48;100168.00;;;-7.54;100.00
73824;BME280;62154;54.914;73.444;2024-03-23T02:51:16;100199.09;;;-7.24;100.00
73824;BME280;62154;54.914;73.444;2024-03-23T02:53:44;100200.47;;;-7.18;100.00
73824;BME280;62154;54.914;73.444;2024-03-23T02:56:11;100211.03;;;-7.15;99.90
73824;BME280;62154;54.914;73.444;2024-03-23T02:58:43;100204.25;;;-7.21;99.78
73824;BME280;62154;54.914;73.444;2024-03-23T03:01:10;100175.50;;;-7.33;100.00
73824;BME280;62154;54.914;73.444;2024-03-23T03:03:38;100199.28;;;-7.14;99.99
73824;BME280;62154;54.914;73.444;2024-03-23T03:06:05;100169.16;;;-7.32;99.75
73824;BME280;62154;54.914;73.444;2024-03-23T03:08:33;100157.28;;;-7.30;99.75
73824;BME280;62154;54.914;73.444;2024-03-23T03:11:00;100185.03;;;-7.03;99.71
73824;BME280;62154;54.914;73.444;2024-03-23T03:13:29;100192.50;;;-6.83;99.80
73824;BME280;62154;54.914;73.444;2024-03-23T03:15:56;100154.25;;;-6.88;99.34
73824;BME280;62154;54.914;73.444;2024-03-23T03:18:25;100196.56;;;-6.64;98.56
73824;BME280;62154;54.914;73.444;2024-03-23T03:20:54;100187.03;;;-6.57;98.99
73824;BME280;62154;54.914;73.444;2024-03-23T03:23:22;100192.03;;;-6.40;99.19
73824;BME280;62154;54.914;73.444;2024-03-23T03:25:49;100173.53;;;-6.33;98.87
73824;BME280;62154;54.914;73.444;2024-03-23T03:28:17;100192.00;;;-6.15;98.25
73824;BME280;62154;54.914;73.444;2024-03-23T03:30:45;100196.19;;;-6.11;98.10
73824;BME280;62154;54.914;73.444;2024-03-23T03:33:12;100183.53;;;-6.11;97.96
73824;BME280;62154;54.914;73.444;2024-03-23T03:35:40;100180.75;;;-5.98;98.00
73824;BME280;62154;54.914;73.444;2024-03-23T03:38:07;100186.38;;;-6.01;97.21
73824;BME280;62154;54.914;73.444;2024-03-23T03:40:35;100176.44;;;-6.00;97.40
73824;BME280;62154;54.914;73.444;2024-03-23T03:43:03;100182.94;;;-5.92;97.45
73824;BME280;62154;54.914;73.444;2024-03-23T03:45:30;100170.44;;;-6.04;97.12
73824;BME280;62154;54.914;73.444;2024-03-23T03:47:58;100181.00;;;-5.90;97.47
73824;BME280;62154;54.914;73.444;2024-03-23T03:50:26;100166.88;;;-5.93;97.42
73824;BME280;62154;54.914;73.444;2024-03-23T03:52:53;100195.38;;;-5.78;97.24
73824;BME280;62154;54.914;73.444;2024-03-23T03:55:21;100193.41;;;-5.76;97.17
73824;BME280;62154;54.914;73.444;2024-03-23T03:57:48;100203.97;;;-5.73;97.13
73824;BME280;62154;54.914;73.444;2024-03-23T04:00:16;100197.59;;;-5.71;97.05
73824;BME280;62154;54.914;73.444;2024-03-23T04:02:44;100156.44;;;-5.98;96.93
73824;BME280;62154;54.914;73.444;2024-03-23T04:05:11;100184.09;;;-5.71;97.65
73824;BME280;62154;54.914;73.444;2024-03-23T04:07:39;100199.34;;;-5.48;97.84
73824;BME280;62154;54.914;73.444;2024-03-23T04:10:07;100203.03;;;-5.37;97.64
73824;BME280;62154;54.914;73.444;2024-03-23T04:12:47;100195.69;;;-5.24;97.17
73824;BME280;62154;54.914;73.444;2024-03-23T04:15:15;100165.47;;;-5.41;96.76
73824;BME280;62154;54.914;73.444;2024-03-23T04:17:42;100157.72;;;-5.34;96.71
73824;BME280;62154;54.914;73.444;2024-03-23T04:20:10;100196.41;;;-4.99;97.07
73824;BME280;62154;54.914;73.444;2024-03-23T04:22:38;100202.28;;;-4.83;96.97
73824;BME280;62154;54.914;73.444;2024-03-23T04:25:06;64066.41;;;-147.71;100.00
73824;BME280;62154;54.914;73.444;2024-03-23T04:27:34;64066.41;;;-147.71;100.00
73824;BME280;62154;54.914;73.444;2024-03-23T04:30:01;100183.69;;;-4.65;96.48
73824;BME280;62154;54.914;73.444;2024-03-23T04:32:31;100184.03;;;-4.58;96.22
73824;BME280;62154;54.914;73.444;2024-03-23T04:34:58;64066.41;;;-147.71;100.00
73824;BME280;62154;54.914;73.444;2024-03-23T04:37:26;64066.41;;;-147.71;100.00
73824;BME280;62154;54.914;73.444;2024-03-23T04:39:53;64066.41;;;-147.71;100.00
73824;BME280;62154;54.914;73.444;2024-03-23T04:42:21;64066.41;;;-147.71;100.00
73824;BME280;62154;54.914;73.444;2024-03-23T04:44:48;64066.41;;;-147.71;100.00
73824;BME280;62154;54.914;73.444;2024-03-23T04:47:16;64066.41;;;-147.71;100.00
73824;BME280;62154;54.914;73.444;2024-03-23T04:49:44;64066.41;;;-147.71;100.00
73824;BME280;62154;54.914;73.444;2024-03-23T04:52:11;64066.41;;;-147.71;100.00
73824;BME280;62154;54.914;73.444;2024-03-23T04:54:40;64066.41;;;-147.71;100.00
73824;BME280;62154;54.914;73.444;2024-03-23T04:57:08;64066.41;;;-147.71;100.00
73824;BME280;62154;54.914;73.444;2024-03-23T04:59:35;64066.41;;;-147.71;100.00
73824;BME280;62154;54.914;73.444;2024-03-23T05:02:03;64066.41;;;-147.71;100.00
73824;BME280;62154;54.914;73.444;2024-03-23T05:04:30;64066.41;;;-147.71;100.00
73824;BME280;62154;54.914;73.444;2024-03-23T05:06:59;64066.41;;;-147.71;100.00
73824;BME280;62154;54.914;73.444;2024-03-23T05:09:26;64066.41;;;-147.71;100.00
73824;BME280;62154;54.914;73.444;2024-03-23T05:12:08;64066.41;;;-147.71;100.00
73824;BME280;62154;54.914;73.444;2024-03-23T05:14:36;64066.41;;;-147.71;100.00
73824;BME280;62154;54.914;73.444;2024-03-23T05:17:03;64066.41;;;-147.71;100.00
73824;BME280;62154;54.914;73.444;2024-03-23T05:19:31;64066.41;;;-147.71;100.00
73824;BME280;62154;54.914;73.444;2024-03-23T05:21:58;64066.41;;;-147.71;100.00
73824;BME280;62154;54.914;73.444;2024-03-23T05:24:26;64066.41;;;-147.71;100.00
73824;BME280;62154;54.914;73.444;2024-03-23T05:26:53;64066.41;;;-147.71;100.00
73824;BME280;62154;54.914;73.444;2024-03-23T05:29:21;64066.41;;;-147.71;100.00
73824;BME280;62154;54.914;73.444;2024-03-23T05:31:52;64066.41;;;-147.71;100.00
73824;BME280;62154;54.914;73.444;2024-03-23T05:34:19;64066.41;;;-147.71;100.00
73824;BME280;62154;54.914;73.444;2024-03-23T05:36:47;64066.41;;;-147.71;100.00
73824;BME280;62154;54.914;73.444;2024-03-23T05:39:16;64066.41;;;-147.71;100.00
73824;BME280;62154;54.914;73.444;2024-03-23T05:41:44;64066.41;;;-147.71;100.00
73824;BME280;62154;54.914;73.444;2024-03-23T05:44:11;64066.41;;;-147.71;100.00
73824;BME280;62154;54.914;73.444;2024-03-23T05:46:38;64066.41;;;-147.71;100.00
73824;BME280;62154;54.914;73.444;2024-03-23T05:49:06;64066.41;;;-147.71;100.00
73824;BME280;62154;54.914;73.444;2024-03-23T05:51:33;64066.41;;;-147.71;100.00
73824;BME280;62154;54.914;73.444;2024-03-23T05:54:03;64066.41;;;-147.71;100.00
73824;BME280;62154;54.914;73.444;2024-03-23T05:56:30;64066.41;;;-147.71;100.00
73824;BME280;62154;54.914;73.444;2024-03-23T05:58:58;64066.41;;;-147.71;100.00
73824;BME280;62154;54.914;73.444;2024-03-23T06:01:26;64066.41;;;-147.71;100.00
73824;BME280;62154;54.914;73.444;2024-03-23T06:03:55;64066.41;;;-147.71;100.00
73824;BME280;62154;54.914;73.444;2024-03-23T06:06:23;64066.41;;;-147.71;100.00
73824;BME280;62154;54.914;73.444;2024-03-23T06:08:51;64066.41;;;-147.71;100.00
73824;BME280;62154;54.914;73.444;2024-03-23T06:11:18;64066.41;;;-147.71;100.00
73824;BME280;62154;54.914;73.444;2024-03-23T06:13:46;64066.41;;;-147.71;100.00
73824;BME280;62154;54.914;73.444;2024-03-23T06:16:13;64066.41;;;-147.71;100.00
73824;BME280;62154;54.914;73.444;2024-03-23T06:18:40;64066.41;;;-147.71;100.00
73824;BME280;62154;54.914;73.444;2024-03-23T06:21:13;64066.41;;;-147.71;100.00
73824;BME280;62154;54.914;73.444;2024-03-23T06:23:42;64066.41;;;-147.71;100.00
73824;BME280;62154;54.914;73.444;2024-03-23T06:26:09;64066.41;;;-147.71;100.00
73824;BME280;62154;54.914;73.444;2024-03-23T06:28:37;64066.41;;;-147.71;100.00
73824;BME280;62154;54.914;73.444;2024-03-23T06:31:09;64066.41;;;-147.71;100.00
73824;BME280;62154;54.914;73.444;2024-03-23T06:33:37;64066.41;;;-147.71;100.00
73824;BME280;62154;54.914;73.444;2024-03-23T06:36:05;64066.41;;;-147.71;100.00
73824;BME280;62154;54.914;73.444;2024-03-23T06:38:33;64066.41;;;-147.71;100.00
73824;BME280;62154;54.914;73.444;2024-03-23T06:41:05;64066.41;;;-147.71;100.00
73824;BME280;62154;54.914;73.444;2024-03-23T06:43:33;64066.41;;;-147.71;100.00
73824;BME280;62154;54.914;73.444;2024-03-23T06:46:01;64066.41;;;-147.71;100.00
73824;BME280;62154;54.914;73.444;2024-03-23T06:48:41;64066.41;;;-147.71;100.00
73824;BME280;62154;54.914;73.444;2024-03-23T06:51:09;64066.41;;;-147.71;100.00
73824;BME280;62154;54.914;73.444;2024-03-23T06:53:37;64066.41;;;-147.71;100.00
73824;BME280;62154;54.914;73.444;2024-03-23T06:56:07;64066.41;;;-147.71;100.00
73824;BME280;62154;54.914;73.444;2024-03-23T06:58:35;64066.41;;;-147.71;100.00
73824;BME280;62154;54.914;73.444;2024-03-23T07:01:02;64066.41;;;-147.71;100.00
73824;BME280;62154;54.914;73.444;2024-03-23T07:03:30;64066.41;;;-147.71;100.00
73824;BME280;62154;54.914;73.444;2024-03-23T07:05:58;64066.41;;;-147.71;100.00
73824;BME280;62154;54.914;73.444;2024-03-23T07:08:26;64066.41;;;-147.71;100.00
73824;BME280;62154;54.914;73.444;2024-03-23T07:10:53;64066.41;;;-147.71;100.00
73824;BME280;62154;54.914;73.444;2024-03-23T07:13:20;64066.41;;;-147.71;100.00
73824;BME280;62154;54.914;73.444;2024-03-23T07:15:54;64066.41;;;-147.71;100.00
73824;BME280;62154;54.914;73.444;2024-03-23T07:18:26;64066.41;;;-147.71;100.00
73824;BME280;62154;54.914;73.444;2024-03-23T07:21:08;64066.41;;;-147.71;100.00
73824;BME280;62154;54.914;73.444;2024-03-23T07:23:36;64066.41;;;-147.71;100.00
73824;BME280;62154;54.914;73.444;2024-03-23T07:26:05;64066.41;;;-147.71;100.00
73824;BME280;62154;54.914;73.444;2024-03-23T07:28:32;64066.41;;;-147.71;100.00
73824;BME280;62154;54.914;73.444;2024-03-23T07:31:06;64066.41;;;-147.71;100.00
73824;BME280;62154;54.914;73.444;2024-03-23T07:33:34;64066.41;;;-147.71;100.00
73824;BME280;62154;54.914;73.444;2024-03-23T07:36:02;64066.41;;;-147.71;100.00
73824;BME280;62154;54.914;73.444;2024-03-23T07:38:30;64066.41;;;-147.71;100.00
73824;BME280;62154;54.914;73.444;2024-03-23T07:41:11;64066.41;;;-147.71;100.00
73824;BME280;62154;54.914;73.444;2024-03-23T07:43:39;64066.41;;;-147.71;100.00
73824;BME280;62154;54.914;73.444;2024-03-23T07:46:07;64066.41;;;-147.71;100.00
73824;BME280;62154;54.914;73.444;2024-03-23T07:48:35;64066.41;;;-147.71;100.00
73824;BME280;62154;54.914;73.444;2024-03-23T07:51:05;64066.41;;;-147.71;100.00
73824;BME280;62154;54.914;73.444;2024-03-23T07:53:33;64066.41;;;-147.71;100.00
73824;BME280;62154;54.914;73.444;2024-03-23T07:56:06;64066.41;;;-147.71;100.00
73824;BME280;62154;54.914;73.444;2024-03-23T07:58:35;64066.41;;;-147.71;100.00
73824;BME280;62154;54.914;73.444;2024-03-23T08:01:13;64066.41;;;-147.71;100.00
73824;BME280;62154;54.914;73.444;2024-03-23T08:03:45;64066.41;;;-147.71;100.00
73824;BME280;62154;54.914;73.444;2024-03-23T08:06:15;64066.41;;;-147.71;100.00
73824;BME280;62154;54.914;73.444;2024-03-23T08:08:44;64066.41;;;-147.71;100.00
73824;BME280;62154;54.914;73.444;2024-03-23T08:11:12;64066.41;;;-147.71;100.00
73824;BME280;62154;54.914;73.444;2024-03-23T08:13:42;64066.41;;;-147.71;100.00
73824;BME280;62154;54.914;73.444;2024-03-23T08:16:09;64066.41;;;-147.71;100.00
73824;BME280;62154;54.914;73.444;2024-03-23T08:18:37;64066.41;;;-147.71;100.00
73824;BME280;62154;54.914;73.444;2024-03-23T08:21:05;64066.41;;;-147.71;100.00
73824;BME280;62154;54.914;73.444;2024-03-23T08:23:34;64066.41;;;-147.71;100.00
73824;BME280;62154;54.914;73.444;2024-03-23T08:26:05;64066.41;;;-147.71;100.00
73824;BME280;62154;54.914;73.444;2024-03-23T08:28:37;64066.41;;;-147.71;100.00
73824;BME280;62154;54.914;73.444;2024-03-23T08:31:08;64066.41;;;-147.71;100.00
73824;BME280;62154;54.914;73.444;2024-03-23T08:33:37;64066.41;;;-147.71;100.00
73824;BME280;62154;54.914;73.444;2024-03-23T08:36:06;64066.41;;;-147.71;100.00
73824;BME280;62154;54.914;73.444;2024-03-23T08:38:35;64066.41;;;-147.71;100.00
73824;BME280;62154;54.914;73.444;2024-03-23T08:43:39;64066.41;;;-147.71;100.00
73824;BME280;62154;54.914;73.444;2024-03-23T08:46:19;64066.41;;;-147.71;100.00
73824;BME280;62154;54.914;73.444;2024-03-23T08:48:49;64066.41;;;-147.71;100.00
73824;BME280;62154;54.914;73.444;2024-03-23T08:51:19;64066.41;;;-147.71;100.00
73824;BME280;62154;54.914;73.444;2024-03-23T08:53:46;64066.41;;;-147.71;100.00
73824;BME280;62154;54.914;73.444;2024-03-23T08:56:14;64066.41;;;-147.71;100.00
73824;BME280;62154;54.914;73.444;2024-03-23T08:58:43;64066.41;;;-147.71;100.00
73824;BME280;62154;54.914;73.444;2024-03-23T09:01:12;64066.41;;;-147.71;100.00
73824;BME280;62154;54.914;73.444;2024-03-23T09:03:43;64066.41;;;-147.71;100.00
73824;BME280;62154;54.914;73.444;2024-03-23T09:06:12;64066.41;;;-147.71;100.00
73824;BME280;62154;54.914;73.444;2024-03-23T09:08:40;64066.41;;;-147.71;100.00
73824;BME280;62154;54.914;73.444;2024-03-23T09:11:13;64066.41;;;-147.71;100.00
73824;BME280;62154;54.914;73.444;2024-03-23T09:13:40;64066.41;;;-147.71;100.00
73824;BME280;62154;54.914;73.444;2024-03-23T09:16:11;64066.41;;;-147.71;100.00
73824;BME280;62154;54.914;73.444;2024-03-23T09:18:39;64066.41;;;-147.71;100.00
73824;BME280;62154;54.914;73.444;2024-03-23T09:21:12;64066.41;;;-147.71;100.00
73824;BME280;62154;54.914;73.444;2024-03-23T09:23:43;64066.41;;;-147.71;100.00
73824;BME280;62154;54.914;73.444;2024-03-23T09:26:11;64066.41;;;-147.71;100.00
73824;BME280;62154;54.914;73.444;2024-03-23T09:28:39;64066.41;;;-147.71;100.00
73824;BME280;62154;54.914;73.444;2024-03-23T09:31:07;64066.41;;;-147.71;100.00
73824;BME280;62154;54.914;73.444;2024-03-23T09:33:35;64066.41;;;-147.71;100.00
73824;BME280;62154;54.914;73.444;2024-03-23T09:36:04;64066.41;;;-147.71;100.00
73824;BME280;62154;54.914;73.444;2024-03-23T09:38:34;64066.41;;;-147.71;100.00
73824;BME280;62154;54.914;73.444;2024-03-23T09:41:07;64066.41;;;-147.71;100.00
73824;BME280;62154;54.914;73.444;2024-03-23T09:43:35;64066.41;;;-147.71;100.00
73824;BME280;62154;54.914;73.444;2024-03-23T09:46:03;64066.41;;;-147.71;100.00
73824;BME280;62154;54.914;73.444;2024-03-23T09:48:33;64066.41;;;-147.71;100.00
73824;BME280;62154;54.914;73.444;2024-03-23T09:51:03;64066.41;;;-147.71;100.00
73824;BME280;62154;54.914;73.444;2024-03-23T09:53:31;64066.41;;;-147.71;100.00
73824;BME280;62154;54.914;73.444;2024-03-23T09:56:00;64066.41;;;-147.71;100.00
73824;BME280;62154;54.914;73.444;2024-03-23T09:58:30;64066.41;;;-147.71;100.00
73824;BME280;62154;54.914;73.444;2024-03-23T10:01:14;64066.41;;;-147.71;100.00
73824;BME280;62154;54.914;73.444;2024-03-23T10:03:45;64066.41;;;-147.71;100.00
73824;BME280;62154;54.914;73.444;2024-03-23T10:06:21;64066.41;;;-147.71;100.00
73824;BME280;62154;54.914;73.444;2024-03-23T10:08:52;64066.41;;;-147.71;100.00
73824;BME280;62154;54.914;73.444;2024-03-23T10:11:21;64066.41;;;-147.71;100.00
73824;BME280;62154;54.914;73.444;2024-03-23T10:13:49;64066.41;;;-147.71;100.00
73824;BME280;62154;54.914;73.444;2024-03-23T10:16:22;64066.41;;;-147.71;100.00
73824;BME280;62154;54.914;73.444;2024-03-23T10:18:50;64066.41;;;-147.71;100.00
73824;BME280;62154;54.914;73.444;2024-03-23T10:21:23;64066.41;;;-147.71;100.00
73824;BME280;62154;54.914;73.444;2024-03-23T10:23:52;64066.41;;;-147.71;100.00
73824;BME280;62154;54.914;73.444;2024-03-23T10:26:24;64066.41;;;-147.71;100.00
73824;BME280;62154;54.914;73.444;2024-03-23T10:29:01;64066.41;;;-147.71;100.00
73824;BME280;62154;54.914;73.444;2024-03-23T10:31:33;64066.41;;;-147.71;100.00
73824;BME280;62154;54.914;73.444;2024-03-23T10:34:03;64066.41;;;-147.71;100.00
73824;BME280;62154;54.914;73.444;2024-03-23T10:36:31;64066.41;;;-147.71;100.00
73824;BME280;62154;54.914;73.444;2024-03-23T10:38:59;64066.41;;;-147.71;100.00
73824;BME280;62154;54.914;73.444;2024-03-23T10:41:31;64066.41;;;-147.71;100.00
73824;BME280;62154;54.914;73.444;2024-03-23T10:43:59;64066.41;;;-147.71;100.00
73824;BME280;62154;54.914;73.444;2024-03-23T10:46:28;64066.41;;;-147.71;100.00
73824;BME280;62154;54.914;73.444;2024-03-23T10:48:56;64066.41;;;-147.71;100.00
73824;BME280;62154;54.914;73.444;2024-03-23T10:51:24;64066.41;;;-147.71;100.00
73824;BME280;62154;54.914;73.444;2024-03-23T10:53:54;64066.41;;;-147.71;100.00
73824;BME280;62154;54.914;73.444;2024-03-23T10:56:23;64066.41;;;-147.71;100.00
73824;BME280;62154;54.914;73.444;2024-03-23T10:58:51;64066.41;;;-147.71;100.00
73824;BME280;62154;54.914;73.444;2024-03-23T11:01:19;64066.41;;;-147.71;100.00
73824;BME280;62154;54.914;73.444;2024-03-23T11:03:47;64066.41;;;-147.71;100.00
73824;BME280;62154;54.914;73.444;2024-03-23T11:06:36;64066.41;;;-147.71;100.00
73824;BME280;62154;54.914;73.444;2024-03-23T11:09:40;64066.41;;;-147.71;100.00
73824;BME280;62154;54.914;73.444;2024-03-23T11:14:52;64066.41;;;-147.71;100.00
73824;BME280;62154;54.914;73.444;2024-03-23T11:17:22;64066.41;;;-147.71;100.00
73824;BME280;62154;54.914;73.444;2024-03-23T11:20:04;64066.41;;;-147.71;100.00
73824;BME280;62154;54.914;73.444;2024-03-23T11:22:49;64066.41;;;-147.71;100.00
73824;BME280;62154;54.914;73.444;2024-03-23T11:25:24;64066.41;;;-147.71;100.00
73824;BME280;62154;54.914;73.444;2024-03-23T11:27:53;64066.41;;;-147.71;100.00
73824;BME280;62154;54.914;73.444;2024-03-23T11:30:22;64066.41;;;-147.71;100.00
73824;BME280;62154;54.914;73.444;2024-03-23T11:32:52;64066.41;;;-147.71;100.00
73824;BME280;62154;54.914;73.444;2024-03-23T11:35:28;64066.41;;;-147.71;100.00
73824;BME280;62154;54.914;73.444;2024-03-23T11:40:30;64066.41;;;-147.71;100.00
73824;BME280;62154;54.914;73.444;2024-03-23T11:43:03;64066.41;;;-147.71;100.00
73824;BME280;62154;54.914;73.444;2024-03-23T11:45:36;64066.41;;;-147.71;100.00
73824;BME280;62154;54.914;73.444;2024-03-23T11:50:41;64066.41;;;-147.71;100.00
73824;BME280;62154;54.914;73.444;2024-03-23T11:53:20;64066.41;;;-147.71;100.00
73824;BME280;62154;54.914;73.444;2024-03-23T11:56:00;64066.41;;;-147.71;100.00
73824;BME280;62154;54.914;73.444;2024-03-23T11:58:30;64066.41;;;-147.71;100.00
73824;BME280;62154;54.914;73.444;2024-03-23T12:00:59;64066.41;;;-147.71;100.00
73824;BME280;62154;54.914;73.444;2024-03-23T12:03:34;64066.41;;;-147.71;100.00
73824;BME280;62154;54.914;73.444;2024-03-23T12:06:05;64066.41;;;-147.71;100.00
73824;BME280;62154;54.914;73.444;2024-03-23T12:08:35;64066.41;;;-147.71;100.00
73824;BME280;62154;54.914;73.444;2024-03-23T12:11:14;64066.41;;;-147.71;100.00
73824;BME280;62154;54.914;73.444;2024-03-23T12:14:02;64066.41;;;-147.71;100.00
73824;BME280;62154;54.914;73.444;2024-03-23T12:16:29;64066.41;;;-147.71;100.00
73824;BME280;62154;54.914;73.444;2024-03-23T12:19:16;64066.41;;;-147.71;100.00
73824;BME280;62154;54.914;73.444;2024-03-23T12:21:45;64066.41;;;-147.71;100.00
73824;BME280;62154;54.914;73.444;2024-03-23T12:24:12;64066.41;;;-147.71;100.00
73824;BME280;62154;54.914;73.444;2024-03-23T12:26:42;64066.41;;;-147.71;100.00
73824;BME280;62154;54.914;73.444;2024-03-23T12:29:22;64066.41;;;-147.71;100.00
73824;BME280;62154;54.914;73.444;2024-03-23T12:31:49;64066.41;;;-147.71;100.00
73824;BME280;62154;54.914;73.444;2024-03-23T12:34:16;64066.41;;;-147.71;100.00
73824;BME280;62154;54.914;73.444;2024-03-23T12:36:48;64066.41;;;-147.71;100.00
73824;BME280;62154;54.914;73.444;2024-03-23T12:39:16;64066.41;;;-147.71;100.00
73824;BME280;62154;54.914;73.444;2024-03-23T12:41:47;64066.41;;;-147.71;100.00
73824;BME280;62154;54.914;73.444;2024-03-23T12:44:16;64066.41;;;-147.71;100.00
73824;BME280;62154;54.914;73.444;2024-03-23T12:46:49;64066.41;;;-147.71;100.00
73824;BME280;62154;54.914;73.444;2024-03-23T12:49:30;64066.41;;;-147.71;100.00
73824;BME280;62154;54.914;73.444;2024-03-23T12:52:00;64066.41;;;-147.71;100.00
73824;BME280;62154;54.914;73.444;2024-03-23T12:54:29;64066.41;;;-147.71;100.00
73824;BME280;62154;54.914;73.444;2024-03-23T12:57:16;64066.41;;;-147.71;100.00
73824;BME280;62154;54.914;73.444;2024-03-23T12:59:44;64066.41;;;-147.71;100.00
73824;BME280;62154;54.914;73.444;2024-03-23T13:02:21;64066.41;;;-147.71;100.00
73824;BME280;62154;54.914;73.444;2024-03-23T13:04:53;64066.41;;;-147.71;100.00
73824;BME280;62154;54.914;73.444;2024-03-23T13:07:28;64066.41;;;-147.71;100.00
73824;BME280;62154;54.914;73.444;2024-03-23T13:10:01;64066.41;;;-147.71;100.00
73824;BME280;62154;54.914;73.444;2024-03-23T13:12:42;64066.41;;;-147.71;100.00
73824;BME280;62154;54.914;73.444;2024-03-23T13:15:10;64066.41;;;-147.71;100.00
73824;BME280;62154;54.914;73.444;2024-03-23T13:17:38;64066.41;;;-147.71;100.00
73824;BME280;62154;54.914;73.444;2024-03-23T13:20:06;64066.41;;;-147.71;100.00
73824;BME280;62154;54.914;73.444;2024-03-23T13:22:40;64066.41;;;-147.71;100.00
73824;BME280;62154;54.914;73.444;2024-03-23T13:25:12;64066.41;;;-147.71;100.00
73824;BME280;62154;54.914;73.444;2024-03-23T13:27:40;64066.41;;;-147.71;100.00
73824;BME280;62154;54.914;73.444;2024-03-23T13:30:09;64066.41;;;-147.71;100.00
73824;BME280;62154;54.914;73.444;2024-03-23T13:32:36;64066.41;;;-147.71;100.00
73824;BME280;62154;54.914;73.444;2024-03-23T13:35:05;64066.41;;;-147.71;100.00
73824;BME280;62154;54.914;73.444;2024-03-23T13:37:35;64066.41;;;-147.71;100.00
73824;BME280;62154;54.914;73.444;2024-03-23T13:40:06;64066.41;;;-147.71;100.00